Aérodrome :
LOGIN :

S'inscrire | Disclaimer

   EN    FR    IT 

 










Légende :    VFR   VFR Marginal   IFR   IFR Intensif   IFR Très Intensif
Visi : 
Plafond : 
>= 8 km
>= 3000ft
5 à 8 km
1000 à 3000 ft
1500m à 5 km
500 à 1000 ft
800 à 1500m
200 à 500 ft
< 800m
< 200 ft
Symboles :   Orages  Brouillard  Fortes neiges  Fortes précipitations  Vent > 20 kt
SIGMETs :   Divers  Orages  Givrage  Turbulence  Onde Orograph.  Cendres Volcan.







- Altitude de l'aérodrome : 505 ft
- Code IATA : SXB
- Voir les cartes d'approche


LFST - Strasbourg

DERNIER METAR :
  • 152200Z AUTO 13005KT CAVOK M01/M05 Q1018 BECMG 3000 -SN

METARs EXPIRÉS :
  • 152130Z AUTO 13005KT 9000 NSC M01/M05 Q1018 BECMG 3000 -SN
  • 152100Z AUTO 14005KT 9000 NSC M01/M04 Q1019 BECMG 3000 -SN
  • 152030Z AUTO 15004KT 7000 NSC M02/M04 Q1019 BECMG 3000 -SN
  • 152000Z AUTO 13004KT 6000 NSC M02/M04 Q1019 NOSIG
  • 151930Z AUTO 13003KT 6000 NSC M03/M05 Q1020 NOSIG

TAF TAF LFST
Valide du 15 à 18h jusqu'au 16 à 18h UTC


151700Z 1518/1618 VRB03KT 8000 NSC
BECMG 1522/1524 18008KT 3000 -SN SCT005 BKN030
TEMPO 1600/1606 1200 SN OVC003
BECMG 1606/1608 8000 NSW
BECMG 1612/1614 OVC005
BECMG 1616/1618 VRB03KT 1200 BCFG OVC002
Pas de NOTAMs connus pour ce terrain.
1 SIGMET publié pour la FIR Reims (LFEE) :
 
Givrage fort avec pluie surfondue
LFEE SIGMET 1 VALID 152000/160000 LFPW
LFEE REIMS FIR/UIR SEV ICE (FZRA) FCST W OF LINE N4630 E00530 - N4930 E00600 SFC/FL020 MOV E 15KT NC=



MET'MAP, la Météo Aéronautique d'un coup d'oeil ! - Copyright ORBIFLY Décembre 2007 - Disclaimer

ORBIFLY MET'MAP TEAM :

Programmation & Développement : Alexandra Zaïnal
Conception & Développement : Baudouin d'Aumeries
Co-Programmation & Développement : Marc-Olivier Méhu
Soutien technique & logistique : Manuel Goepfert

Contact : metmap@orbifly.com




SOURCES & CREDITS :

   NOAA